Time;durP1;ratioP1;P1;durP2;ratioP2;P2;SDS_P1;SDS_P2;PMS_P1;PMS_P2;Temp;Humidity;BMP_temperature;BMP_pressure;BME280_temperature;BME280_humidity;BME280_pressure;Samples;Min_cycle;Max_cycle;Signal;HPM_P1;HPM_P2
2022/03/06 00:00:15;;;;;;;4.85;1.83;;;1.60;69.90;;;;;;5070816;28;19916;-79
2022/03/06 00:02:41;;;;;;;6.70;3.00;;;1.60;69.30;;;;;;5072335;28;20009;-77
2022/03/06 00:05:07;;;;;;;;;;;1.60;70.40;;;;;;5072184;28;20021;-79
2022/03/06 00:07:33;;;;;;;7.03;2.45;;;1.50;70.10;;;;;;5072331;28;19913;-80
2022/03/06 00:09:58;;;;;;;3.72;1.85;;;1.40;70.80;;;;;;5072725;28;20032;-79
2022/03/06 00:12:24;;;;;;;3.90;1.55;;;1.50;68.50;;;;;;5087792;28;20025;-80
2022/03/06 00:14:50;;;;;;;4.70;1.95;;;1.50;67.30;;;;;;5061795;28;20472;-79
2022/03/06 00:17:15;;;;;;;;;;;1.50;67.80;;;;;;5081937;28;20041;-79
2022/03/06 00:19:41;;;;;;;3.97;1.70;;;1.50;67.60;;;;;;5060393;28;19911;-78
2022/03/06 00:22:07;;;;;;;;;;;1.60;66.60;;;;;;5059747;28;20039;-79
2022/03/06 00:24:32;;;;;;;6.07;1.50;;;1.50;67.10;;;;;;5058084;28;19912;-78
2022/03/06 00:26:58;;;;;;;;;;;1.50;66.90;;;;;;5059616;28;20059;-79
2022/03/06 00:29:23;;;;;;;5.70;2.05;;;1.60;66.60;;;;;;5059141;28;20571;-79
2022/03/06 00:31:49;;;;;;;4.55;1.80;;;1.60;66.70;;;;;;5061488;28;20021;-79
2022/03/06 00:34:15;;;;;;;4.00;1.52;;;1.60;67.20;;;;;;5078872;28;20079;-78
2022/03/06 00:36:40;;;;;;;;;;;1.60;67.00;;;;;;5056022;28;20131;-79
2022/03/06 00:39:07;;;;;;;5.65;2.10;;;1.50;67.40;;;;;;5059408;28;20372;-79
2022/03/06 00:41:33;;;;;;;4.97;2.65;;;1.50;68.10;;;;;;5060166;28;20092;-79
2022/03/06 00:43:58;;;;;;;;;;;1.40;69.90;;;;;;5061717;28;20049;-79
2022/03/06 00:46:24;;;;;;;7.03;3.15;;;1.40;70.20;;;;;;5062234;28;19909;-78
2022/03/06 00:48:50;;;;;;;;;;;1.40;71.30;;;;;;5061707;28;20024;-79
2022/03/06 00:51:16;;;;;;;6.53;2.45;;;1.30;72.30;;;;;;5060265;28;19904;-79
2022/03/06 00:53:43;;;;;;;6.03;2.83;;;1.20;72.80;;;;;;5058224;28;20064;-79
2022/03/06 00:56:09;;;;;;;5.82;2.40;;;1.20;73.60;;;;;;5056282;28;20131;-79
2022/03/06 00:58:35;;;;;;;;;;;1.20;73.80;;;;;;5074657;28;20067;-79
2022/03/06 01:01:01;;;;;;;5.90;2.55;;;1.10;74.50;;;;;;5057745;28;19905;-80
2022/03/06 01:03:27;;;;;;;;;;;1.00;75.60;;;;;;5059634;28;20029;-79
2022/03/06 01:05:52;;;;;;;6.85;2.47;;;0.90;75.40;;;;;;5058858;28;20038;-78
2022/03/06 01:08:18;;;;;;;6.32;2.30;;;0.90;76.00;;;;;;5076968;28;20035;-79
2022/03/06 01:10:45;;;;;;;4.95;1.98;;;0.80;75.20;;;;;;5062013;28;20119;-79
2022/03/06 01:13:12;;;;;;;6.32;2.80;;;0.90;74.40;;;;;;5059320;28;20428;-79
2022/03/06 01:15:37;;;;;;;4.28;1.52;;;0.90;74.60;;;;;;5057764;28;20025;-79
2022/03/06 01:18:05;;;;;;;;;;;0.90;75.30;;;;;;5074433;28;20095;-79
2022/03/06 01:20:31;;;;;;;5.85;2.13;;;0.90;75.90;;;;;;5059841;28;19912;-80
2022/03/06 01:22:57;;;;;;;10.63;2.42;;;1.00;76.80;;;;;;5057054;28;20021;-79
2022/03/06 01:25:22;;;;;;;;;;;1.00;77.00;;;;;;5057202;28;20039;-79
2022/03/06 01:27:48;;;;;;;6.88;1.98;;;1.00;78.00;;;;;;5057984;28;19908;-78
2022/03/06 01:30:21;;;;;;;;;;;1.00;78.90;;;;;;5059195;28;20115;-79
2022/03/06 01:32:49;;;;;;;4.07;1.90;;;1.00;79.60;;;;;;5057706;28;19913;-79
2022/03/06 01:35:16;;;;;;;5.70;2.35;;;0.90;80.10;;;;;;5057016;28;20025;-79
2022/03/06 01:37:41;;;;;;;9.02;3.65;;;0.90;80.70;;;;;;5058003;28;20120;-79
2022/03/06 01:40:08;;;;;;;;;;;0.90;81.40;;;;;;5069812;28;20029;-80
2022/03/06 01:42:34;;;;;;;10.57;4.22;;;0.80;82.20;;;;;;5067173;28;20373;-79
2022/03/06 01:44:59;;;;;;;;;;;0.70;83.10;;;;;;5078474;28;20063;-79
2022/03/06 01:47:46;;;;;;;12.65;5.47;;;0.70;84.80;;;;;;5061980;28;20295;-79
2022/03/06 01:50:18;;;;;;;7.10;3.10;;;0.70;84.90;;;;;;5059444;28;20025;-80
2022/03/06 01:52:44;;;;;;;9.07;2.70;;;0.70;84.50;;;;;;5062759;28;20029;-80
2022/03/06 01:55:11;;;;;;;6.15;2.30;;;0.70;84.80;;;;;;5060349;28;20029;-79
2022/03/06 01:57:40;;;;;;;7.50;2.65;;;0.60;84.50;;;;;;5060082;28;20056;-79
2022/03/06 02:00:10;;;;;;;5.70;2.45;;;0.70;85.00;;;;;;5083154;28;20411;-80
2022/03/06 02:02:35;;;;;;;6.95;2.17;;;0.60;86.50;;;;;;5071331;28;20052;-79
2022/03/06 02:05:01;;;;;;;;;;;0.50;87.50;;;;;;5060060;28;20028;-78
2022/03/06 02:07:27;;;;;;;9.13;2.30;;;0.40;88.50;;;;;;5055543;28;19905;-79
2022/03/06 02:09:53;;;;;;;6.70;2.55;;;0.30;89.90;;;;;;5051951;28;20036;-79
2022/03/06 02:12:26;;;;;;;5.38;2.03;;;0.20;90.20;;;;;;5055444;28;20082;-80
2022/03/06 02:14:58;;;;;;;5.10;2.00;;;0.20;90.60;;;;;;5056772;28;20021;-79
2022/03/06 02:17:25;;;;;;;4.18;2.20;;;0.30;90.70;;;;;;5057849;28;20101;-79
2022/03/06 02:20:02;;;;;;;6.20;2.40;;;0.20;90.90;;;;;;5056290;28;20021;-78
2022/03/06 02:22:32;;;;;;;5.50;2.22;;;0.10;91.20;;;;;;5056079;28;20116;-79
2022/03/06 02:24:59;;;;;;;6.65;2.65;;;0.10;91.70;;;;;;5073109;28;20033;-80
2022/03/06 02:27:25;;;;;;;6.45;2.13;;;0.00;92.10;;;;;;5052234;28;20033;-79
2022/03/06 02:29:51;;;;;;;;;;;0.20;92.50;;;;;;5054796;28;20375;-78
2022/03/06 02:32:19;;;;;;;6.00;2.70;;;0.10;92.80;;;;;;5051668;28;19996;-78
2022/03/06 02:34:47;;;;;;;8.27;3.08;;;0.00;92.90;;;;;;5051279;28;20051;-79
2022/03/06 02:37:14;;;;;;;7.85;2.53;;;-0.10;93.30;;;;;;5058971;28;20041;-79
2022/03/06 02:39:41;;;;;;;6.88;2.50;;;0.00;93.70;;;;;;5061948;28;20505;-79
2022/03/06 02:42:07;;;;;;;6.18;2.72;;;-0.10;94.10;;;;;;5061464;28;20033;-80
2022/03/06 02:44:33;;;;;;;;;;;-0.30;94.30;;;;;;5065087;28;20100;-80
2022/03/06 02:46:58;;;;;;;5.95;2.30;;;-0.40;95.00;;;;;;5065931;28;20448;-80
2022/03/06 02:49:24;;;;;;;;;;;-0.40;95.10;;;;;;5054627;28;20071;-79
2022/03/06 02:51:50;;;;;;;5.47;2.10;;;-0.50;95.40;;;;;;5057136;28;19955;-79
2022/03/06 02:54:20;;;;;;;;;;;-0.50;95.90;;;;;;5052964;28;20060;-77
2022/03/06 02:56:49;;;;;;;9.27;3.47;;;-0.60;96.60;;;;;;5056470;28;19919;-79
2022/03/06 02:59:15;;;;;;;8.80;3.42;;;-0.60;96.50;;;;;;5055998;28;20025;-80
2022/03/06 03:01:41;;;;;;;;;;;-0.70;96.90;;;;;;5056201;28;20083;-78
2022/03/06 03:04:12;;;;;;;15.20;6.80;;;-0.80;96.80;;;;;;5056997;28;19909;-80
2022/03/06 03:06:38;;;;;;;13.15;4.68;;;-0.80;97.20;;;;;;5056081;28;20036;-79
2022/03/06 03:09:07;;;;;;;8.63;4.07;;;-0.90;98.10;;;;;;5070683;28;20083;-77
2022/03/06 03:11:33;;;;;;;16.25;6.40;;;-0.90;98.30;;;;;;5049502;28;20080;-78
2022/03/06 03:14:01;;;;;;;10.48;4.28;;;-0.90;99.00;;;;;;5047892;28;20055;-80
2022/03/06 03:16:28;;;;;;;7.38;3.42;;;-1.00;99.10;;;;;;5052368;28;20041;-77
2022/03/06 03:18:54;;;;;;;8.50;3.60;;;-1.00;99.90;;;;;;5049135;28;20017;-78
2022/03/06 03:21:19;;;;;;;;;;;-0.90;99.90;;;;;;5049206;28;20082;-77
2022/03/06 03:23:45;;;;;;;9.48;3.22;;;-0.90;99.90;;;;;;5048301;28;20284;-77
2022/03/06 03:26:10;;;;;;;;;;;-0.80;99.90;;;;;;5049575;28;20040;-79
2022/03/06 03:28:36;;;;;;;8.40;3.15;;;-0.80;99.90;;;;;;5050443;28;19924;-80
2022/03/06 03:31:02;;;;;;;;;;;-0.80;99.90;;;;;;5065624;28;20040;-78
2022/03/06 03:33:28;;;;;;;7.28;3.28;;;-0.80;99.90;;;;;;5056208;28;19916;-81
2022/03/06 03:35:53;;;;;;;;;;;-0.80;99.90;;;;;;5075169;28;20272;-80
2022/03/06 03:38:19;;;;;;;8.13;3.17;;;-0.90;99.80;;;;;;5071419;28;19904;-81
2022/03/06 03:40:45;;;;;;;;;;;-0.80;99.60;;;;;;5074573;28;20025;-82
2022/03/06 03:43:11;;;;;;;7.13;3.47;;;-0.90;99.90;;;;;;5073030;28;19900;-82
2022/03/06 03:45:37;;;;;;;9.38;3.58;;;-0.90;99.90;;;;;;5061079;28;20498;-79
2022/03/06 03:48:06;;;;;;;;;;;-0.90;99.90;;;;;;5049515;28;20088;-77
2022/03/06 03:50:32;;;;;;;6.00;3.17;;;-1.00;99.90;;;;;;5057576;28;19905;-79
2022/03/06 03:52:57;;;;;;;;;;;-1.00;99.90;;;;;;5054948;28;20031;-79
2022/03/06 03:55:23;;;;;;;9.50;3.78;;;-1.00;99.90;;;;;;5067077;28;19900;-80
2022/03/06 03:57:49;;;;;;;;;;;-1.10;99.90;;;;;;5059726;28;20091;-79
2022/03/06 04:00:14;;;;;;;6.50;3.00;;;-1.10;99.90;;;;;;5053774;28;19908;-79
2022/03/06 04:02:40;;;;;;;;;;;-1.10;99.90;;;;;;5055864;28;20032;-79
2022/03/06 04:05:06;;;;;;;8.30;3.35;;;-1.10;99.90;;;;;;5058860;28;19905;-78
2022/03/06 04:07:32;;;;;;;8.43;4.22;;;-1.10;99.90;;;;;;5055740;28;20031;-79
2022/03/06 04:09:57;;;;;;;;;;;-1.10;99.90;;;;;;5054214;28;20116;-79
2022/03/06 04:12:23;;;;;;;7.85;3.60;;;-1.00;99.90;;;;;;5055094;28;19904;-79
2022/03/06 04:14:49;;;;;;;;;;;-1.00;99.90;;;;;;5055407;28;20029;-80
2022/03/06 04:17:14;;;;;;;10.68;4.28;;;-1.00;99.90;;;;;;5058058;28;19917;-80
2022/03/06 04:19:40;;;;;;;;;;;-0.80;99.90;;;;;;5056905;28;20017;-79
2022/03/06 04:22:05;;;;;;;9.13;3.53;;;-0.70;99.90;;;;;;5054119;28;19909;-80
2022/03/06 04:24:31;;;;;;;;;;;-0.70;99.90;;;;;;5056932;28;20032;-79
2022/03/06 04:26:57;;;;;;;10.07;4.20;;;-0.60;99.90;;;;;;5057024;28;19912;-78
2022/03/06 04:29:23;;;;;;;;;;;-0.60;99.90;;;;;;5056135;28;20103;-79
2022/03/06 04:31:48;;;;;;;9.18;4.00;;;-0.50;99.90;;;;;;5058411;28;20507;-79
2022/03/06 04:34:15;;;;;;;;;;;-0.50;99.90;;;;;;5057987;28;20041;-79
2022/03/06 04:36:40;;;;;;;11.52;3.75;;;-0.50;99.50;;;;;;5061100;28;19966;-80
2022/03/06 04:39:06;;;;;;;;;;;-0.40;99.20;;;;;;5069621;28;20090;-81
2022/03/06 04:41:32;;;;;;;9.82;3.95;;;-0.40;99.10;;;;;;5065911;28;19909;-79
2022/03/06 04:43:57;;;;;;;;;;;-0.40;99.10;;;;;;5054628;28;20481;-78
2022/03/06 04:46:24;;;;;;;10.32;4.20;;;-0.40;99.10;;;;;;5051781;28;19904;-79
2022/03/06 04:48:49;;;;;;;10.90;4.22;;;-0.40;99.40;;;;;;5054895;28;20021;-79
2022/03/06 04:51:15;;;;;;;;;;;-0.40;99.10;;;;;;5057477;28;20031;-78
2022/03/06 04:53:41;;;;;;;9.80;4.28;;;-0.40;99.00;;;;;;5048567;28;20370;-79
2022/03/06 04:56:07;;;;;;;9.05;4.22;;;-0.30;98.50;;;;;;5049616;28;20037;-80
2022/03/06 04:58:32;;;;;;;;;;;-0.20;98.20;;;;;;5054632;28;20020;-79
2022/03/06 05:00:58;;;;;;;25.67;7.85;;;-0.20;98.10;;;;;;5052519;28;19916;-79
2022/03/06 05:03:24;;;;;;;;;;;-0.20;97.80;;;;;;5057227;28;20202;-79
2022/03/06 05:05:50;;;;;;;13.15;4.80;;;-0.20;97.70;;;;;;5056055;28;19962;-80
2022/03/06 05:08:15;;;;;;;13.40;5.20;;;-0.10;97.70;;;;;;5061279;28;20027;-79
2022/03/06 05:10:41;;;;;;;;;;;-0.10;97.40;;;;;;5060587;28;20025;-80
2022/03/06 05:13:09;;;;;;;12.52;5.72;;;-0.10;97.30;;;;;;5057118;28;19970;-79
2022/03/06 05:15:35;;;;;;;9.00;4.00;;;-0.10;97.30;;;;;;5055955;28;20041;-78
2022/03/06 05:18:01;;;;;;;;;;;-0.10;97.10;;;;;;5053272;28;20052;-77
2022/03/06 05:20:27;;;;;;;9.73;4.07;;;-0.10;96.70;;;;;;5054355;28;19905;-78
2022/03/06 05:22:53;;;;;;;9.73;4.75;;;-0.10;96.80;;;;;;5053354;28;20029;-79
2022/03/06 05:25:18;;;;;;;;;;;0.00;96.70;;;;;;5057842;28;20078;-77
2022/03/06 05:27:44;;;;;;;11.85;5.55;;;-0.10;96.70;;;;;;5065448;28;19928;-79
2022/03/06 05:30:10;;;;;;;;;;;0.00;96.60;;;;;;5069607;28;20025;-79
2022/03/06 05:32:36;;;;;;;9.85;4.45;;;0.00;96.30;;;;;;5070123;28;19932;-80
2022/03/06 05:35:02;;;;;;;;;;;0.00;96.20;;;;;;5072416;28;20029;-80
2022/03/06 05:37:29;;;;;;;8.55;4.32;;;0.00;95.90;;;;;;5059846;28;19913;-79
2022/03/06 05:39:55;;;;;;;9.00;3.90;;;0.10;95.70;;;;;;5061938;28;20029;-79
2022/03/06 05:42:20;;;;;;;;;;;0.10;95.50;;;;;;5056569;28;20113;-78
2022/03/06 05:44:46;;;;;;;9.82;4.55;;;0.10;95.50;;;;;;5051736;28;19959;-79
2022/03/06 05:47:11;;;;;;;;;;;0.10;95.50;;;;;;5071166;28;20413;-76
2022/03/06 05:49:37;;;;;;;15.65;5.50;;;0.20;94.90;;;;;;5059369;28;19889;-79
2022/03/06 05:52:03;;;;;;;12.63;4.90;;;0.30;94.60;;;;;;5071581;28;20017;-80
2022/03/06 05:54:29;;;;;;;;;;;0.40;94.10;;;;;;5067522;28;20049;-80
2022/03/06 05:56:56;;;;;;;7.60;4.03;;;0.60;92.90;;;;;;5067162;28;19921;-80
2022/03/06 05:59:21;;;;;;;11.07;4.22;;;0.70;92.50;;;;;;5069524;28;20275;-80
2022/03/06 06:01:47;;;;;;;;;;;0.90;91.50;;;;;;5068157;28;20040;-80
2022/03/06 06:04:13;;;;;;;10.10;3.92;;;1.10;90.30;;;;;;5069090;28;19913;-80
2022/03/06 06:06:38;;;;;;;;;;;1.30;87.90;;;;;;5066527;28;20043;-80
2022/03/06 06:09:12;;;;;;;14.65;5.85;;;1.40;84.40;;;;;;5066573;28;20378;-80
2022/03/06 06:11:37;;;;;;;14.93;7.30;;;1.60;82.80;;;;;;5065911;28;20025;-80
2022/03/06 06:14:03;;;;;;;;;;;1.80;80.90;;;;;;5086239;28;20036;-80
2022/03/06 06:16:30;;;;;;;10.55;4.78;;;2.00;79.00;;;;;;5067982;28;19920;-80
2022/03/06 06:18:56;;;;;;;8.48;3.75;;;2.20;77.20;;;;;;5066387;28;20440;-80
2022/03/06 06:21:24;;;;;;;8.43;3.08;;;2.40;76.00;;;;;;5064313;28;20036;-80
2022/03/06 06:23:50;;;;;;;7.68;3.25;;;2.70;72.80;;;;;;5063157;28;20029;-79
2022/03/06 06:26:17;;;;;;;7.47;3.15;;;3.00;71.70;;;;;;5065835;28;20032;-80
2022/03/06 06:28:43;;;;;;;7.60;3.80;;;3.40;69.70;;;;;;5066426;28;20384;-80
2022/03/06 06:31:09;;;;;;;10.75;3.17;;;3.70;67.30;;;;;;5069510;28;20092;-79
2022/03/06 06:33:35;;;;;;;6.25;3.00;;;4.20;64.80;;;;;;5067887;28;20063;-80
2022/03/06 06:36:02;;;;;;;4.82;2.83;;;4.60;61.60;;;;;;5071099;28;20043;-80
2022/03/06 06:38:28;;;;;;;7.13;3.00;;;5.00;60.00;;;;;;5088612;28;20035;-80
2022/03/06 06:40:54;;;;;;;6.47;3.22;;;5.60;56.00;;;;;;5090344;28;20004;-81
2022/03/06 06:43:20;;;;;;;;;;;6.00;54.00;;;;;;5071042;28;20133;-85
2022/03/06 06:45:47;;;;;;;13.65;3.70;;;6.40;52.20;;;;;;5050237;28;20377;-86
2022/03/06 06:48:13;;;;;;;9.93;4.53;;;6.70;51.50;;;;;;5049081;28;20664;-84
2022/03/06 06:50:38;;;;;;;;;;;7.20;49.60;;;;;;5050166;28;20100;-84
2022/03/06 06:53:04;;;;;;;8.30;4.18;;;7.50;48.40;;;;;;5048223;28;20007;-86
2022/03/06 06:55:30;;;;;;;9.15;4.25;;;8.30;46.80;;;;;;5046958;28;20037;-82
2022/03/06 06:57:56;;;;;;;6.05;3.28;;;8.90;44.50;;;;;;5047916;28;20041;-83
2022/03/06 07:00:21;;;;;;;;;;;9.10;42.20;;;;;;5048834;28;20040;-83
2022/03/06 07:02:47;;;;;;;6.80;4.00;;;9.20;41.70;;;;;;5049030;28;19909;-82
2022/03/06 07:05:14;;;;;;;7.15;4.20;;;9.30;41.20;;;;;;5048773;28;20025;-82
2022/03/06 07:07:39;;;;;;;6.53;4.05;;;9.40;39.50;;;;;;5048485;28;20136;-81
2022/03/06 07:10:05;;;;;;;;;;;9.80;39.10;;;;;;5048414;28;20116;-83
2022/03/06 07:12:39;;;;;;;6.57;3.45;;;9.70;37.90;;;;;;5047577;28;20004;-83
2022/03/06 07:15:05;;;;;;;12.40;5.80;;;10.00;39.00;;;;;;5048555;28;20203;-81
2022/03/06 07:17:31;;;;;;;;;;;10.50;38.10;;;;;;5046735;28;20659;-84
2022/03/06 07:19:56;;;;;;;26.05;20.05;;;11.00;36.60;;;;;;5047943;28;19905;-84
2022/03/06 07:22:22;;;;;;;;;;;11.30;36.00;;;;;;5048846;28;20025;-83
2022/03/06 07:24:48;;;;;;;9.13;4.95;;;11.60;33.60;;;;;;5045992;28;19908;-84
2022/03/06 07:27:13;;;;;;;;;;;11.50;33.60;;;;;;5046183;28;20757;-82
2022/03/06 07:29:39;;;;;;;9.07;5.03;;;11.60;33.80;;;;;;5045303;28;19909;-82
2022/03/06 07:32:04;;;;;;;;;;;12.10;33.80;;;;;;5046306;28;20566;-82
2022/03/06 07:34:30;;;;;;;7.32;3.70;;;12.50;31.30;;;;;;5047570;28;20284;-82
2022/03/06 07:36:56;;;;;;;;;;;12.40;31.10;;;;;;5063449;28;20544;-83
2022/03/06 07:39:21;;;;;;;7.00;3.67;;;12.60;31.60;;;;;;5046990;28;20270;-82
2022/03/06 07:41:47;;;;;;;;;;;13.00;30.10;;;;;;5047798;28;20029;-83
2022/03/06 07:44:12;;;;;;;12.15;6.03;;;13.10;29.90;;;;;;5046095;28;19905;-83
2022/03/06 07:46:38;;;;;;;;;;;13.20;29.90;;;;;;5062563;28;20401;-79
2022/03/06 07:49:04;;;;;;;10.73;7.15;;;13.50;29.20;;;;;;5044933;28;19904;-79
2022/03/06 07:51:29;;;;;;;;;;;13.20;28.50;;;;;;5046029;28;20021;-79
2022/03/06 07:53:55;;;;;;;8.57;3.88;;;12.80;29.20;;;;;;5044761;28;20611;-79
2022/03/06 07:56:20;;;;;;;;;;;13.00;28.70;;;;;;5046726;28;20044;-81
2022/03/06 07:58:46;;;;;;;20.05;10.85;;;12.80;29.50;;;;;;5045693;28;19908;-80
2022/03/06 08:01:12;;;;;;;;;;;12.80;29.60;;;;;;5047026;28;20456;-81
2022/03/06 08:03:39;;;;;;;23.38;12.73;;;12.70;29.00;;;;;;5046171;28;20437;-84
2022/03/06 08:06:04;;;;;;;13.50;6.43;;;12.60;29.50;;;;;;5045337;28;20799;-81
2022/03/06 08:08:30;;;;;;;;;;;12.80;29.10;;;;;;5062177;28;20082;-81
2022/03/06 08:10:56;;;;;;;19.48;13.18;;;12.60;28.50;;;;;;5046824;28;19915;-80
2022/03/06 08:13:21;;;;;;;;;;;12.70;29.20;;;;;;5047300;28;20057;-83
2022/03/06 08:15:47;;;;;;;16.73;9.35;;;12.80;28.90;;;;;;5045631;28;19920;-85
2022/03/06 08:18:13;;;;;;;;;;;12.80;29.20;;;;;;5047075;28;20163;-81
2022/03/06 08:20:38;;;;;;;12.77;7.20;;;13.20;28.80;;;;;;5044957;28;19915;-82
2022/03/06 08:23:04;;;;;;;;;;;13.50;28.20;;;;;;5045730;28;20039;-81
2022/03/06 08:25:30;;;;;;;11.18;7.28;;;13.60;28.20;;;;;;5045101;28;19905;-81
2022/03/06 08:27:56;;;;;;;;;;;13.50;28.00;;;;;;5046028;28;20283;-79
2022/03/06 08:30:22;;;;;;;7.28;4.15;;;13.60;27.80;;;;;;5044589;28;19920;-79
2022/03/06 08:32:48;;;;;;;13.25;7.93;;;13.90;28.00;;;;;;5044387;28;20132;-79
2022/03/06 08:35:13;;;;;;;;;;;14.00;27.50;;;;;;5046601;28;20147;-82
2022/03/06 08:37:39;;;;;;;9.82;5.70;;;13.90;27.50;;;;;;5045628;28;19904;-82
2022/03/06 08:40:06;;;;;;;;;;;14.50;27.40;;;;;;5046710;28;20040;-80
2022/03/06 08:42:31;;;;;;;7.68;4.40;;;14.80;26.60;;;;;;5046297;28;20499;-83
2022/03/06 08:44:57;;;;;;;6.75;4.05;;;14.90;26.40;;;;;;5044760;28;20120;-79
2022/03/06 08:47:23;;;;;;;10.40;5.80;;;14.70;26.40;;;;;;5045900;28;20516;-78
2022/03/06 08:49:49;;;;;;;9.98;4.63;;;14.40;26.80;;;;;;5044837;28;20124;-79
2022/03/06 08:52:14;;;;;;;8.60;4.72;;;14.50;26.30;;;;;;5045976;28;20061;-80
2022/03/06 08:54:40;;;;;;;10.68;5.00;;;14.70;26.50;;;;;;5044725;28;20029;-79
2022/03/06 08:57:06;;;;;;;7.63;3.75;;;14.40;26.10;;;;;;5044998;28;20462;-78
2022/03/06 08:59:31;;;;;;;10.35;6.90;;;14.70;25.70;;;;;;5044911;28;20092;-79
2022/03/06 09:01:57;;;;;;;11.35;7.65;;;14.80;25.90;;;;;;5045158;28;20035;-77
2022/03/06 09:04:24;;;;;;;6.30;4.43;;;14.70;25.80;;;;;;5045487;28;20029;-79
2022/03/06 09:06:50;;;;;;;6.80;3.50;;;14.20;26.30;;;;;;5046207;28;20102;-80
2022/03/06 09:09:16;;;;;;;9.45;4.80;;;14.40;26.40;;;;;;5046021;28;20044;-81
2022/03/06 09:11:42;;;;;;;6.68;4.32;;;14.20;26.70;;;;;;5045953;28;20060;-80
2022/03/06 09:14:08;;;;;;;10.23;5.25;;;14.30;26.60;;;;;;5045657;28;20040;-79
2022/03/06 09:16:34;;;;;;;7.65;4.50;;;14.80;26.70;;;;;;5046467;28;20033;-80
2022/03/06 09:19:01;;;;;;;7.40;4.57;;;15.00;25.90;;;;;;5046120;28;20375;-79
2022/03/06 09:21:27;;;;;;;7.95;3.47;;;15.00;25.40;;;;;;5045217;28;20484;-81
2022/03/06 09:23:53;;;;;;;10.00;5.28;;;15.30;24.90;;;;;;5045401;28;20485;-79
2022/03/06 09:26:19;;;;;;;5.22;3.35;;;15.40;25.20;;;;;;5046400;28;20052;-80
2022/03/06 09:28:45;;;;;;;5.78;2.90;;;15.70;25.10;;;;;;5044798;28;20147;-80
2022/03/06 09:31:10;;;;;;;7.93;4.07;;;16.00;25.10;;;;;;5045393;28;20033;-79
2022/03/06 09:33:36;;;;;;;4.85;2.97;;;16.30;24.60;;;;;;5044380;28;20106;-81
2022/03/06 09:36:03;;;;;;;6.15;3.55;;;16.40;24.30;;;;;;5045143;28;20056;-81
2022/03/06 09:38:28;;;;;;;5.80;2.83;;;15.90;24.20;;;;;;5044527;28;20036;-81
2022/03/06 09:40:57;;;;;;;7.03;3.63;;;16.40;24.30;;;;;;5045651;28;20226;-80
2022/03/06 09:43:23;;;;;;;6.55;3.50;;;16.80;23.90;;;;;;5045144;28;20082;-80
2022/03/06 09:45:49;;;;;;;6.25;3.88;;;17.10;23.40;;;;;;5044994;28;20029;-81
2022/03/06 09:48:16;;;;;;;6.28;3.78;;;16.80;23.10;;;;;;5045116;28;20025;-80
2022/03/06 09:50:45;;;;;;;6.18;2.88;;;16.40;23.30;;;;;;5045344;28;20021;-82
2022/03/06 09:53:11;;;;;;;5.30;3.42;;;16.30;24.80;;;;;;5045634;28;20021;-81
2022/03/06 09:55:37;;;;;;;5.18;3.28;;;16.60;23.70;;;;;;5045411;28;20040;-80
2022/03/06 09:58:03;;;;;;;5.70;3.47;;;16.40;23.50;;;;;;5044827;28;20029;-80
2022/03/06 10:00:28;;;;;;;5.93;3.45;;;16.60;23.60;;;;;;5044686;28;20028;-80
2022/03/06 10:03:00;;;;;;;8.10;3.78;;;16.50;23.80;;;;;;5047731;28;20503;-80
2022/03/06 10:05:37;;;;;;;7.13;4.40;;;16.90;23.80;;;;;;5048768;28;20017;-80
2022/03/06 10:08:22;;;;;;;5.30;3.35;;;17.50;23.20;;;;;;5049097;28;20028;-81
2022/03/06 10:10:54;;;;;;;6.28;3.47;;;17.60;22.70;;;;;;5048478;28;20029;-81
2022/03/06 10:13:21;;;;;;;68.20;41.88;;;17.10;22.80;;;;;;5047173;28;20120;-82
2022/03/06 10:16:11;;;;;;;16.25;9.05;;;17.10;22.90;;;;;;5046211;28;20037;-81
2022/03/06 10:18:43;;;;;;;9.68;4.60;;;17.10;22.20;;;;;;5047414;28;20115;-82
2022/03/06 10:21:08;;;;;;;9.73;5.57;;;16.70;22.90;;;;;;5048654;28;20017;-80
2022/03/06 10:23:35;;;;;;;12.55;8.82;;;16.60;23.10;;;;;;5048181;28;20029;-80
2022/03/06 10:26:11;;;;;;;14.07;9.23;;;17.00;23.00;;;;;;5063380;28;20068;-79
2022/03/06 10:29:00;;;;;;;21.17;15.37;;;17.00;22.70;;;;;;5046851;28;20409;-79
2022/03/06 10:31:32;;;;;;;12.85;8.65;;;16.70;22.90;;;;;;5048035;28;20032;-81
2022/03/06 10:34:01;;;;;;;15.95;8.60;;;16.50;23.00;;;;;;5046813;28;20045;-80
2022/03/06 10:36:32;;;;;;;10.10;5.97;;;16.80;23.10;;;;;;5046735;28;20048;-81
2022/03/06 10:38:57;;;;;;;19.67;12.95;;;16.80;23.00;;;;;;5048840;28;20029;-81
2022/03/06 10:41:32;;;;;;;8.73;3.95;;;17.00;22.60;;;;;;5048311;28;20032;-81
2022/03/06 10:43:58;;;;;;;6.70;4.05;;;16.90;22.20;;;;;;5046905;28;20464;-79
2022/03/06 10:46:23;;;;;;;8.27;5.35;;;16.00;22.40;;;;;;5046572;28;20063;-82
2022/03/06 10:49:00;;;;;;;6.30;4.40;;;14.70;23.50;;;;;;5063698;28;20116;-83
2022/03/06 10:51:29;;;;;;;6.70;4.32;;;13.00;25.20;;;;;;5047325;28;20489;-80
2022/03/06 10:53:58;;;;;;;6.32;3.92;;;12.40;26.40;;;;;;5046794;28;20583;-82
2022/03/06 10:56:25;;;;;;;7.85;4.75;;;11.70;27.20;;;;;;5048607;28;20047;-79
2022/03/06 10:58:51;;;;;;;10.10;5.45;;;11.40;28.10;;;;;;5046983;28;20029;-82
2022/03/06 11:01:17;;;;;;;;;;;11.10;28.30;;;;;;5049580;28;20029;-81
2022/03/06 11:03:43;;;;;;;11.27;5.38;;;10.80;28.90;;;;;;5049653;28;19904;-85
2022/03/06 11:06:10;;;;;;;20.27;11.82;;;10.50;29.40;;;;;;5048943;28;20025;-86
2022/03/06 11:08:37;;;;;;;17.52;11.02;;;10.50;29.60;;;;;;5049094;28;20025;-85
2022/03/06 11:11:06;;;;;;;10.15;6.82;;;10.40;30.20;;;;;;5047596;28;20036;-79
2022/03/06 11:13:32;;;;;;;12.32;6.55;;;10.40;30.10;;;;;;5048215;28;20397;-85
2022/03/06 11:15:58;;;;;;;;;;;10.40;30.50;;;;;;5047004;28;20029;-86
2022/03/06 11:18:25;;;;;;;11.45;6.10;;;10.30;30.50;;;;;;5047638;28;19912;-86
2022/03/06 11:20:55;;;;;;;8.13;5.47;;;10.40;31.00;;;;;;5047749;28;20279;-86
2022/03/06 11:23:50;;;;;;;8.90;4.93;;;10.50;30.90;;;;;;5046949;28;20044;-79
2022/03/06 11:26:15;;;;;;;8.05;4.60;;;10.50;30.10;;;;;;5049238;28;20410;-88
2022/03/06 11:28:53;;;;;;;;;;;10.80;29.80;;;;;;5048654;28;20025;-85
2022/03/06 11:31:19;;;;;;;8.35;5.50;;;11.30;29.70;;;;;;5048649;28;19999;-87
2022/03/06 11:33:54;;;;;;;;;;;11.70;30.00;;;;;;5050032;28;20139;-88
2022/03/06 11:36:26;;;;;;;9.27;5.57;;;11.80;29.40;;;;;;5048559;28;19967;-86
2022/03/06 11:38:53;;;;;;;8.93;5.75;;;11.80;29.00;;;;;;5047272;28;20060;-83
2022/03/06 11:41:20;;;;;;;12.23;6.40;;;11.70;29.50;;;;;;5047539;28;20488;-81
2022/03/06 11:43:50;;;;;;;10.60;5.70;;;11.50;29.30;;;;;;5047163;28;20075;-85
2022/03/06 11:46:24;;;;;;;16.33;5.95;;;11.30;29.20;;;;;;5046679;28;20433;-83
2022/03/06 11:48:50;;;;;;;9.95;5.80;;;11.00;29.40;;;;;;5047477;28;20440;-87
2022/03/06 11:51:16;;;;;;;;;;;10.80;29.70;;;;;;5048175;28;20037;-85
2022/03/06 11:54:06;;;;;;;8.32;5.00;;;10.60;30.00;;;;;;5049908;28;19936;-86
2022/03/06 11:56:35;;;;;;;9.90;5.63;;;10.40;30.10;;;;;;5049426;28;20029;-85
2022/03/06 11:59:10;;;;;;;12.60;6.03;;;10.30;30.50;;;;;;5048568;28;20013;-86
2022/03/06 12:01:37;;;;;;;11.52;5.95;;;10.20;30.60;;;;;;5047388;28;20063;-86
2022/03/06 12:04:08;;;;;;;12.07;6.25;;;10.00;30.90;;;;;;5047728;28;20024;-86
2022/03/06 12:06:57;;;;;;;10.25;6.28;;;9.90;31.10;;;;;;5047858;28;20037;-84
2022/03/06 12:09:24;;;;;;;9.65;6.30;;;9.70;31.40;;;;;;5048941;28;20090;-88
2022/03/06 12:11:52;;;;;;;10.05;6.30;;;9.50;31.50;;;;;;5048341;28;20029;-83
2022/03/06 12:14:39;;;;;;;10.40;6.03;;;9.40;31.70;;;;;;5048464;28;20064;-85
2022/03/06 12:17:07;;;;;;;;;;;9.30;31.80;;;;;;5048263;28;20120;-87
2022/03/06 12:19:35;;;;;;;11.10;6.80;;;9.40;32.40;;;;;;5048171;28;19909;-85
2022/03/06 12:22:13;;;;;;;10.20;6.10;;;9.50;32.20;;;;;;5050375;28;20033;-86
2022/03/06 12:24:43;;;;;;;12.75;7.10;;;9.50;32.10;;;;;;5062389;28;20028;-81
2022/03/06 12:27:14;;;;;;;14.18;8.98;;;9.60;31.70;;;;;;5067936;28;20021;-81
2022/03/06 12:29:45;;;;;;;13.27;8.18;;;9.60;31.80;;;;;;5062995;28;20039;-81
2022/03/06 12:32:27;;;;;;;12.35;7.47;;;9.60;32.40;;;;;;5058763;28;20045;-84
2022/03/06 12:35:13;;;;;;;13.05;6.43;;;9.80;32.30;;;;;;5054440;28;20040;-82
2022/03/06 12:37:42;;;;;;;14.27;6.57;;;9.90;33.00;;;;;;5050408;28;20065;-80
2022/03/06 12:40:11;;;;;;;10.73;6.68;;;10.00;32.20;;;;;;5050589;28;20500;-83
2022/03/06 12:42:38;;;;;;;9.45;6.18;;;10.30;31.90;;;;;;5047399;28;20029;-86
2022/03/06 12:45:17;;;;;;;15.73;8.10;;;10.30;30.90;;;;;;5051893;28;20090;-85
2022/03/06 12:47:44;;;;;;;20.45;10.10;;;10.00;30.70;;;;;;5055908;28;20029;-83
2022/03/06 12:50:17;;;;;;;18.35;9.85;;;10.10;31.30;;;;;;5066564;28;20744;-83
2022/03/06 12:52:44;;;;;;;17.95;9.13;;;10.20;31.40;;;;;;5055220;28;20474;-84
2022/03/06 12:55:20;;;;;;;14.27;9.50;;;10.30;31.10;;;;;;5050438;28;20021;-85
2022/03/06 12:57:47;;;;;;;;;;;10.40;31.00;;;;;;5050948;28;20033;-85
2022/03/06 13:00:18;;;;;;;20.38;10.68;;;10.50;30.70;;;;;;5048236;28;19912;-87
2022/03/06 13:02:52;;;;;;;12.52;7.88;;;10.50;30.40;;;;;;5048747;28;20106;-87
2022/03/06 13:05:20;;;;;;;15.38;8.70;;;10.60;30.10;;;;;;5047569;28;20144;-82
2022/03/06 13:07:47;;;;;;;15.18;9.00;;;10.70;30.00;;;;;;5049860;28;20055;-87